createdAt,value
2022-08-27T00:10:05.735Z,17.10
2022-08-27T00:20:15.248Z,19.20
2022-08-27T00:30:24.470Z,16.00
2022-08-27T00:40:33.746Z,20.30
2022-08-27T00:50:45.636Z,15.90
2022-08-27T01:00:53.730Z,13.00
2022-08-27T01:11:02.469Z,17.30
2022-08-27T01:21:14.543Z,14.80
2022-08-27T01:31:22.500Z,11.10
2022-08-27T01:41:30.442Z,14.60
2022-08-27T01:51:37.263Z,17.30
2022-08-27T02:01:45.269Z,15.70
2022-08-27T02:11:52.572Z,17.00
2022-08-27T02:21:59.335Z,14.90
2022-08-27T02:32:06.360Z,23.80
2022-08-27T02:42:12.774Z,17.30
2022-08-27T02:52:22.793Z,21.10
2022-08-27T03:02:32.806Z,19.70
2022-08-27T03:12:40.344Z,25.20
2022-08-27T03:22:47.905Z,18.80
2022-08-27T03:32:55.028Z,16.20
2022-08-27T03:43:02.184Z,22.80
2022-08-27T03:53:10.697Z,23.70
2022-08-27T04:03:18.476Z,18.80
2022-08-27T04:13:27.117Z,17.80
2022-08-27T04:23:34.579Z,17.20
2022-08-27T04:33:40.693Z,15.70
2022-08-27T04:43:47.924Z,21.90
2022-08-27T04:53:55.670Z,20.30
2022-08-27T05:04:03.054Z,23.20
2022-08-27T05:14:12.694Z,19.20
2022-08-27T05:24:20.679Z,16.20
2022-08-27T05:44:41.045Z,20.00
2022-08-27T05:54:49.655Z,26.30
2022-08-27T06:15:02.643Z,18.50
2022-08-27T06:25:09.933Z,23.90
2022-08-27T06:35:15.985Z,36.60
2022-08-27T06:45:23.777Z,34.90
2022-08-27T06:55:34.228Z,28.10
2022-08-27T07:05:44.659Z,29.60
2022-08-27T07:15:52.191Z,28.90
2022-08-27T07:36:05.182Z,20.00
2022-08-27T07:46:12.763Z,23.30
2022-08-27T07:56:20.221Z,20.80
2022-08-27T08:06:28.391Z,14.30
2022-08-27T08:16:35.616Z,14.40
2022-08-27T08:26:44.593Z,16.50
2022-08-27T08:36:55.109Z,20.30
2022-08-27T08:47:01.282Z,10.10
2022-08-27T08:57:18.690Z,11.20
2022-08-27T09:07:33.429Z,10.10
2022-08-27T09:17:42.175Z,14.50
2022-08-27T09:27:50.648Z,8.70
2022-08-27T09:37:59.631Z,11.10
2022-08-27T09:48:06.857Z,10.50
2022-08-27T09:58:19.092Z,11.30
2022-08-27T10:08:24.928Z,9.80
2022-08-27T10:28:40.045Z,6.60
2022-08-27T10:38:51.950Z,10.40
2022-08-27T10:49:03.385Z,11.90
2022-08-27T10:59:09.224Z,9.10
2022-08-27T11:09:18.671Z,8.80
2022-08-27T11:29:35.330Z,10.30
2022-08-27T11:50:01.337Z,12.40
2022-08-27T12:00:30.673Z,10.10
2022-08-27T12:10:36.680Z,12.40
2022-08-27T12:20:43.760Z,8.40
2022-08-27T12:30:52.122Z,11.20
2022-08-27T12:40:59.881Z,12.60
2022-08-27T12:51:18.004Z,16.30
2022-08-27T13:01:35.097Z,11.80
2022-08-27T13:11:48.230Z,11.80
2022-08-27T13:21:56.411Z,12.20
2022-08-27T13:32:04.359Z,12.00
2022-08-27T13:42:12.190Z,9.10
2022-08-27T13:52:21.312Z,14.10
2022-08-27T14:02:33.552Z,14.70
2022-08-27T14:12:43.468Z,12.50
2022-08-27T14:22:51.331Z,12.60
2022-08-27T14:32:58.600Z,15.30
2022-08-27T14:43:03.861Z,8.70
2022-08-27T14:53:11.126Z,10.30
2022-08-27T15:03:20.007Z,15.90
2022-08-27T15:13:27.559Z,14.30
2022-08-27T15:23:34.922Z,12.50
2022-08-27T15:33:42.481Z,23.30
2022-08-27T15:43:49.712Z,17.00
2022-08-27T15:53:56.903Z,14.30
2022-08-27T16:04:06.268Z,13.40
2022-08-27T16:14:14.365Z,15.70
2022-08-27T16:24:21.653Z,13.10
2022-08-27T16:34:26.282Z,8.80
2022-08-27T16:44:35.437Z,13.40
2022-08-27T16:54:42.951Z,9.00
2022-08-27T17:04:51.129Z,14.70
2022-08-27T17:15:10.197Z,9.10
2022-08-27T17:25:17.475Z,7.70
2022-08-27T17:35:22.091Z,3.80
2022-08-27T17:45:29.669Z,8.70
2022-08-27T17:55:37.843Z,8.60
2022-08-27T18:05:45.919Z,11.20
2022-08-27T18:15:52.466Z,8.20
2022-08-27T18:26:00.247Z,11.60
2022-08-27T18:36:09.067Z,7.70
2022-08-27T18:46:17.473Z,10.70
2022-08-27T18:56:23.752Z,11.00
2022-08-27T19:06:31.155Z,14.10
2022-08-27T19:16:44.462Z,9.40
2022-08-27T19:26:53.357Z,11.30
2022-08-27T19:37:02.731Z,19.00
2022-08-27T19:47:11.867Z,19.40
2022-08-27T19:57:19.071Z,23.90
2022-08-27T20:07:25.230Z,17.10
2022-08-27T20:17:32.382Z,15.40
2022-08-27T20:27:40.824Z,15.50
2022-08-27T20:37:47.883Z,16.80
2022-08-27T20:58:21.031Z,16.70
2022-08-27T21:08:28.201Z,18.50
2022-08-27T21:18:35.782Z,14.80
2022-08-27T21:28:44.691Z,14.30
2022-08-27T21:38:51.987Z,22.60
2022-08-27T21:48:59.343Z,19.90
2022-08-27T21:59:05.930Z,14.30
2022-08-27T22:09:13.469Z,11.50
2022-08-27T22:19:22.632Z,20.00
2022-08-27T22:29:30.722Z,12.40
2022-08-27T22:39:38.814Z,14.10
2022-08-27T22:49:46.479Z,21.50
2022-08-27T22:59:53.592Z,13.90
2022-08-27T23:10:01.261Z,21.00
2022-08-27T23:20:10.607Z,24.80
2022-08-27T23:30:18.575Z,20.70
2022-08-27T23:50:33.861Z,14.50
